createdAt,value
2023-05-15T00:02:20.532Z,7.40
2023-05-15T00:04:47.889Z,7.05
2023-05-15T00:07:15.291Z,8.05
2023-05-15T00:09:42.597Z,7.63
2023-05-15T00:12:10.010Z,7.28
2023-05-15T00:14:37.185Z,7.07
2023-05-15T00:17:04.373Z,7.15
2023-05-15T00:19:31.731Z,7.20
2023-05-15T00:21:58.912Z,7.93
2023-05-15T00:24:26.130Z,7.18
2023-05-15T00:26:53.338Z,8.70
2023-05-15T00:29:20.581Z,7.07
2023-05-15T00:31:47.882Z,7.13
2023-05-15T00:34:15.134Z,6.78
2023-05-15T00:36:42.318Z,7.22
2023-05-15T00:39:09.666Z,7.35
2023-05-15T00:41:37.518Z,6.75
2023-05-15T00:44:05.263Z,7.95
2023-05-15T00:46:33.052Z,8.05
2023-05-15T00:49:00.816Z,8.02
2023-05-15T00:51:28.019Z,8.15
2023-05-15T00:53:56.829Z,8.30
2023-05-15T00:56:24.867Z,7.65
2023-05-15T00:58:52.387Z,7.78
2023-05-15T01:01:19.763Z,7.35
2023-05-15T01:03:46.989Z,7.35
2023-05-15T01:06:14.241Z,8.00
2023-05-15T01:08:46.812Z,7.75
2023-05-15T01:11:15.425Z,8.38
2023-05-15T01:13:43.252Z,7.65
2023-05-15T01:16:10.963Z,7.30
2023-05-15T01:18:38.301Z,6.47
2023-05-15T01:21:27.225Z,7.65
2023-05-15T01:23:57.504Z,6.80
2023-05-15T01:26:46.404Z,6.72
2023-05-15T01:29:21.871Z,6.97
2023-05-15T01:31:59.072Z,7.72
2023-05-15T01:34:32.544Z,7.68
2023-05-15T01:37:03.405Z,7.50
2023-05-15T01:39:33.282Z,7.10
2023-05-15T01:42:09.459Z,8.15
2023-05-15T01:44:39.344Z,8.32
2023-05-15T01:47:14.109Z,8.18
2023-05-15T01:49:43.220Z,8.10
2023-05-15T01:52:34.003Z,8.07
2023-05-15T01:55:05.042Z,7.95
2023-05-15T01:57:33.239Z,7.88
2023-05-15T02:00:01.135Z,7.35
2023-05-15T02:02:28.889Z,7.47
2023-05-15T02:04:56.938Z,7.05
2023-05-15T02:07:25.167Z,7.28
2023-05-15T02:09:52.815Z,7.78
2023-05-15T02:12:21.152Z,8.30
2023-05-15T02:14:49.752Z,7.82
2023-05-15T02:17:17.144Z,8.23
2023-05-15T02:19:44.383Z,8.88
2023-05-15T02:22:11.686Z,7.75
2023-05-15T02:24:39.184Z,8.30
2023-05-15T02:27:17.858Z,8.70
2023-05-15T02:30:06.548Z,8.95
2023-05-15T02:32:47.396Z,7.85
2023-05-15T02:35:20.635Z,9.32
2023-05-15T02:37:50.654Z,8.95
2023-05-15T02:40:19.668Z,8.40
2023-05-15T02:42:47.477Z,8.63
2023-05-15T02:45:14.959Z,8.57
2023-05-15T02:47:42.745Z,9.73
2023-05-15T02:50:10.578Z,8.70
2023-05-15T02:52:37.891Z,8.90
2023-05-15T02:55:06.301Z,8.15
2023-05-15T02:57:34.098Z,8.90
2023-05-15T03:00:01.484Z,9.32
2023-05-15T03:02:28.758Z,9.38
2023-05-15T03:04:56.082Z,8.88
2023-05-15T03:07:23.364Z,9.52
2023-05-15T03:09:50.560Z,8.52
2023-05-15T03:12:17.772Z,9.38
2023-05-15T03:14:44.990Z,8.93
2023-05-15T03:17:12.379Z,7.93
2023-05-15T03:19:39.711Z,10.52
2023-05-15T03:22:07.282Z,9.50
2023-05-15T03:24:34.563Z,8.77
2023-05-15T03:27:01.856Z,9.43
2023-05-15T03:29:29.367Z,9.65
2023-05-15T03:31:56.996Z,9.13
2023-05-15T03:34:24.246Z,10.23
2023-05-15T03:36:51.504Z,9.65
2023-05-15T03:39:18.781Z,10.02
2023-05-15T03:41:45.972Z,9.90
2023-05-15T03:44:13.328Z,9.18
2023-05-15T03:46:40.632Z,10.10
2023-05-15T03:49:08.000Z,10.25
2023-05-15T03:51:35.410Z,9.45
2023-05-15T03:54:05.182Z,9.00
2023-05-15T03:56:33.038Z,8.98
2023-05-15T03:59:00.282Z,9.27
2023-05-15T04:01:27.490Z,10.68
2023-05-15T04:03:54.724Z,9.85
2023-05-15T04:06:22.917Z,9.55
2023-05-15T04:08:50.406Z,10.45
2023-05-15T04:11:17.682Z,10.60
2023-05-15T04:13:44.950Z,10.60
2023-05-15T04:16:12.309Z,11.70
2023-05-15T04:18:39.583Z,14.57
2023-05-15T04:21:09.572Z,14.88
2023-05-15T04:23:36.806Z,13.57
2023-05-15T04:26:04.061Z,13.25
2023-05-15T04:28:32.407Z,13.23
2023-05-15T04:30:59.936Z,14.57
2023-05-15T04:33:27.213Z,13.07
2023-05-15T04:35:54.391Z,14.30
2023-05-15T04:38:21.581Z,12.48
2023-05-15T04:40:49.314Z,12.48
2023-05-15T04:43:16.600Z,13.23
2023-05-15T04:45:43.943Z,11.55
2023-05-15T04:48:11.201Z,13.05
2023-05-15T04:50:38.415Z,12.15
2023-05-15T04:53:15.175Z,13.25
2023-05-15T04:55:42.532Z,11.52
2023-05-15T04:58:09.932Z,12.50
2023-05-15T05:00:37.139Z,12.05
2023-05-15T05:03:04.929Z,11.70
2023-05-15T05:05:32.199Z,12.40
2023-05-15T05:07:59.424Z,11.20
2023-05-15T05:10:27.230Z,11.95
2023-05-15T05:12:55.385Z,10.57
2023-05-15T05:15:22.750Z,10.02
2023-05-15T05:17:50.101Z,10.77
2023-05-15T05:20:17.607Z,10.93
2023-05-15T05:22:44.956Z,10.00
2023-05-15T05:25:12.182Z,10.38
2023-05-15T05:27:39.484Z,9.15
2023-05-15T05:30:07.403Z,10.23
2023-05-15T05:32:34.711Z,10.27
2023-05-15T05:35:02.081Z,10.25
2023-05-15T05:37:29.434Z,9.05
2023-05-15T05:39:56.787Z,9.98
2023-05-15T05:42:24.019Z,9.35
2023-05-15T05:44:51.371Z,10.07
2023-05-15T05:47:18.594Z,8.27
2023-05-15T05:49:48.259Z,8.82
2023-05-15T05:52:16.764Z,9.32
2023-05-15T05:54:49.953Z,9.48
2023-05-15T05:57:17.538Z,9.23
2023-05-15T05:59:45.881Z,9.05
2023-05-15T06:02:13.484Z,9.40
2023-05-15T06:04:41.296Z,8.82
2023-05-15T06:07:08.884Z,9.23
2023-05-15T06:09:36.332Z,10.20
2023-05-15T06:12:08.301Z,9.32
2023-05-15T06:14:36.116Z,9.07
2023-05-15T06:17:03.756Z,9.25
2023-05-15T06:19:31.541Z,9.05
2023-05-15T06:21:58.820Z,9.65
2023-05-15T06:24:26.120Z,9.00
2023-05-15T06:26:53.469Z,10.20
2023-05-15T06:29:21.760Z,9.77
2023-05-15T06:31:48.995Z,9.85
2023-05-15T06:34:16.333Z,8.75
2023-05-15T06:36:43.534Z,8.75
2023-05-15T06:39:10.983Z,8.52
2023-05-15T06:41:38.590Z,9.23
2023-05-15T06:44:06.325Z,9.45
2023-05-15T06:46:33.868Z,9.75
2023-05-15T06:49:01.236Z,10.00
2023-05-15T06:51:28.491Z,8.52
2023-05-15T06:53:55.744Z,11.15
2023-05-15T06:56:23.011Z,10.93
2023-05-15T06:58:50.178Z,11.68
2023-05-15T07:01:17.392Z,10.70
2023-05-15T07:03:44.669Z,10.70
2023-05-15T07:06:11.848Z,11.52
2023-05-15T07:08:39.072Z,9.70
2023-05-15T07:11:06.326Z,10.10
2023-05-15T07:13:33.510Z,11.63
2023-05-15T07:16:00.774Z,11.77
2023-05-15T07:18:28.064Z,11.48
2023-05-15T07:20:55.426Z,10.20
2023-05-15T07:23:23.474Z,9.05
2023-05-15T07:25:52.644Z,9.68
2023-05-15T07:28:20.148Z,9.05
2023-05-15T07:30:47.331Z,7.38
2023-05-15T07:33:14.605Z,7.03
2023-05-15T07:35:41.777Z,7.60
2023-05-15T07:38:09.080Z,7.00
2023-05-15T07:40:36.304Z,6.28
2023-05-15T07:43:03.576Z,7.63
2023-05-15T07:45:30.862Z,7.50
2023-05-15T07:47:58.844Z,6.97
2023-05-15T07:50:26.179Z,7.10
2023-05-15T07:52:53.496Z,7.03
2023-05-15T07:55:20.730Z,6.85
2023-05-15T07:57:53.379Z,7.05
2023-05-15T08:00:22.557Z,6.13
2023-05-15T08:02:49.888Z,6.95
2023-05-15T08:05:17.301Z,5.68
2023-05-15T08:07:45.509Z,5.95
2023-05-15T08:10:13.468Z,5.60
2023-05-15T08:12:46.225Z,5.75
2023-05-15T08:15:13.826Z,4.53
2023-05-15T08:17:41.436Z,5.15
2023-05-15T08:20:09.721Z,4.13
2023-05-15T08:22:36.896Z,4.13
2023-05-15T08:25:05.932Z,5.25
2023-05-15T08:27:33.130Z,4.45
2023-05-15T08:30:00.453Z,4.60
2023-05-15T08:32:27.905Z,4.65
2023-05-15T08:34:55.168Z,4.93
2023-05-15T08:37:22.302Z,5.20
2023-05-15T08:39:49.553Z,4.60
2023-05-15T08:42:35.908Z,3.78
2023-05-15T08:45:03.272Z,4.68
2023-05-15T08:47:32.970Z,4.57
2023-05-15T08:50:07.205Z,5.00
2023-05-15T08:52:34.829Z,5.00
2023-05-15T08:55:02.625Z,4.35
2023-05-15T08:57:30.144Z,5.00
2023-05-15T08:59:57.915Z,4.40
2023-05-15T09:02:45.307Z,4.93
2023-05-15T09:05:12.773Z,4.35
2023-05-15T09:07:41.737Z,4.78
2023-05-15T09:10:09.897Z,4.63
2023-05-15T09:12:42.672Z,4.90
2023-05-15T09:15:18.030Z,4.57
2023-05-15T09:17:46.098Z,4.68
2023-05-15T09:20:34.384Z,4.50
2023-05-15T09:23:04.517Z,4.50
2023-05-15T09:25:47.106Z,5.13
2023-05-15T09:28:31.566Z,4.93
2023-05-15T09:31:03.887Z,4.90
2023-05-15T09:33:36.308Z,5.05
2023-05-15T09:36:04.816Z,4.45
2023-05-15T09:38:41.879Z,4.78
2023-05-15T09:41:09.657Z,5.35
2023-05-15T09:43:38.379Z,4.57
2023-05-15T09:46:06.538Z,4.57
2023-05-15T09:48:34.772Z,4.18
2023-05-15T09:51:02.236Z,4.03
2023-05-15T09:53:30.516Z,4.47
2023-05-15T09:55:58.301Z,5.05
2023-05-15T09:58:29.417Z,4.20
2023-05-15T10:00:59.765Z,4.07
2023-05-15T10:03:26.879Z,4.60
2023-05-15T10:06:01.356Z,4.30
2023-05-15T10:08:29.206Z,4.65
2023-05-15T10:10:59.923Z,4.15
2023-05-15T10:13:28.109Z,3.95
2023-05-15T10:15:59.989Z,3.90
2023-05-15T10:18:28.811Z,4.15
2023-05-15T10:20:58.613Z,4.43
2023-05-15T10:23:34.039Z,4.30
2023-05-15T10:26:04.766Z,4.13
2023-05-15T10:28:33.672Z,4.75
2023-05-15T10:31:05.477Z,3.78
2023-05-15T10:33:34.186Z,3.53
2023-05-15T10:36:20.043Z,3.80
2023-05-15T10:38:51.308Z,4.07
2023-05-15T10:41:21.202Z,3.97
2023-05-15T10:43:53.902Z,3.75
2023-05-15T10:46:22.465Z,3.85
2023-05-15T10:48:51.819Z,4.00
2023-05-15T10:51:32.960Z,3.33
2023-05-15T10:54:03.680Z,3.65
2023-05-15T10:56:32.846Z,3.67
2023-05-15T10:59:11.128Z,3.30
2023-05-15T11:01:40.009Z,4.03
2023-05-15T11:04:17.127Z,2.70
2023-05-15T11:06:49.376Z,2.88
2023-05-15T11:09:22.804Z,2.53
2023-05-15T11:12:00.727Z,2.42
2023-05-15T11:14:29.882Z,2.80
2023-05-15T11:16:58.050Z,2.63
2023-05-15T11:19:28.360Z,2.65
2023-05-15T11:22:06.200Z,2.67
2023-05-15T11:24:48.312Z,3.42
2023-05-15T11:27:21.277Z,3.22
2023-05-15T11:30:11.741Z,2.88
2023-05-15T11:32:51.900Z,3.38
2023-05-15T11:35:38.002Z,2.47
2023-05-15T11:38:11.665Z,2.85
2023-05-15T11:40:50.412Z,2.30
2023-05-15T11:43:36.395Z,2.60
2023-05-15T11:46:03.916Z,1.95
2023-05-15T11:48:35.956Z,1.83
2023-05-15T11:51:04.312Z,2.15
2023-05-15T11:53:33.594Z,1.90
2023-05-15T11:56:01.076Z,2.10
2023-05-15T12:02:46.460Z,2.00
2023-05-15T12:05:13.729Z,2.05
2023-05-15T12:07:42.953Z,1.90
2023-05-15T12:10:13.691Z,2.17
2023-05-15T12:12:42.302Z,1.63
2023-05-15T12:15:11.237Z,1.85
2023-05-15T12:17:39.987Z,1.60
2023-05-15T12:20:18.034Z,1.50
2023-05-15T12:22:45.712Z,1.60
2023-05-15T12:25:14.953Z,1.98
2023-05-15T12:27:43.522Z,1.85
2023-05-15T12:30:11.305Z,1.95
2023-05-15T12:32:39.168Z,1.80
2023-05-15T12:35:06.651Z,1.90
2023-05-15T12:37:36.193Z,1.75
2023-05-15T12:40:12.268Z,2.08
2023-05-15T12:46:58.621Z,1.70
2023-05-15T12:49:25.855Z,1.83
2023-05-15T12:51:53.198Z,2.08
2023-05-15T12:54:20.834Z,1.80
2023-05-15T12:56:48.584Z,2.20
2023-05-15T12:59:15.823Z,2.25
2023-05-15T13:01:43.219Z,1.98
2023-05-15T13:04:11.023Z,1.40
2023-05-15T13:06:46.231Z,1.65
2023-05-15T13:09:14.275Z,2.10
2023-05-15T13:11:45.153Z,1.80
2023-05-15T13:14:17.374Z,1.95
2023-05-15T13:16:46.621Z,1.40
2023-05-15T13:19:14.449Z,1.77
2023-05-15T13:21:41.755Z,1.55
2023-05-15T13:24:10.700Z,1.92
2023-05-15T13:26:37.988Z,1.80
2023-05-15T13:29:05.224Z,1.60
2023-05-15T13:31:32.587Z,2.42
2023-05-15T13:33:59.763Z,2.10
2023-05-15T13:36:27.004Z,1.63
2023-05-15T13:38:54.263Z,1.70
2023-05-15T13:41:22.479Z,1.25
2023-05-15T13:43:49.757Z,1.40
2023-05-15T13:46:17.067Z,1.23
2023-05-15T13:48:44.400Z,1.05
2023-05-15T13:51:11.640Z,1.10
2023-05-15T13:53:39.205Z,1.40
2023-05-15T13:56:06.579Z,0.95
2023-05-15T13:58:33.896Z,1.58
2023-05-15T14:01:04.805Z,1.40
2023-05-15T14:03:34.455Z,1.30
2023-05-15T14:06:02.022Z,1.65
2023-05-15T14:08:29.240Z,1.67
2023-05-15T14:10:56.448Z,1.90
2023-05-15T14:13:24.699Z,1.88
2023-05-15T14:15:52.570Z,1.80
2023-05-15T14:18:19.908Z,1.73
2023-05-15T14:20:47.065Z,1.70
2023-05-15T14:23:14.332Z,1.90
2023-05-15T14:25:44.369Z,1.75
2023-05-15T14:28:12.867Z,1.73
2023-05-15T14:30:41.477Z,1.60
2023-05-15T14:33:08.785Z,1.80
2023-05-15T14:35:36.730Z,2.08
2023-05-15T14:38:05.193Z,2.17
2023-05-15T14:40:32.660Z,2.53
2023-05-15T14:42:59.912Z,1.90
2023-05-15T14:45:27.543Z,1.75
2023-05-15T14:47:54.984Z,2.03
2023-05-15T14:50:22.349Z,1.90
2023-05-15T14:52:49.680Z,2.05
2023-05-15T14:55:22.097Z,1.90
2023-05-15T14:57:50.389Z,1.40
2023-05-15T15:00:18.058Z,1.70
2023-05-15T15:02:46.286Z,1.67
2023-05-15T15:05:13.781Z,1.00
2023-05-15T15:08:03.571Z,1.13
2023-05-15T15:10:33.890Z,1.70
2023-05-15T15:13:01.585Z,1.30
2023-05-15T15:15:30.532Z,1.25
2023-05-15T15:17:58.262Z,1.40
2023-05-15T15:20:27.504Z,1.27
2023-05-15T15:22:55.438Z,1.40
2023-05-15T15:25:22.938Z,1.40
2023-05-15T15:27:50.891Z,1.70
2023-05-15T15:30:18.453Z,1.88
2023-05-15T15:32:45.891Z,1.40
2023-05-15T15:35:13.288Z,1.55
2023-05-15T15:37:41.051Z,1.40
2023-05-15T15:40:08.746Z,1.80
2023-05-15T15:42:35.929Z,1.63
2023-05-15T15:45:03.498Z,1.70
2023-05-15T15:47:32.171Z,1.75
2023-05-15T15:50:00.182Z,1.92
2023-05-15T15:52:28.055Z,1.85
2023-05-15T15:54:55.410Z,2.05
2023-05-15T15:57:22.681Z,1.50
2023-05-15T15:59:50.017Z,1.83
2023-05-15T16:02:17.533Z,2.35
2023-05-15T16:04:44.961Z,1.83
2023-05-15T16:07:12.205Z,2.00
2023-05-15T16:09:39.397Z,1.50
2023-05-15T16:12:06.691Z,2.03
2023-05-15T16:14:34.272Z,2.38
2023-05-15T16:17:04.032Z,2.00
2023-05-15T16:19:31.363Z,2.10
2023-05-15T16:21:58.972Z,1.90
2023-05-15T16:24:26.487Z,2.03
2023-05-15T16:26:53.722Z,1.58
2023-05-15T16:29:21.146Z,1.90
2023-05-15T16:31:48.493Z,2.17
2023-05-15T16:34:15.893Z,2.00
2023-05-15T16:36:43.090Z,2.10
2023-05-15T16:39:10.301Z,1.77
2023-05-15T16:41:37.530Z,1.83
2023-05-15T16:44:10.727Z,1.67
2023-05-15T16:46:38.648Z,2.20
2023-05-15T16:49:07.272Z,1.80
2023-05-15T16:51:35.386Z,1.70
2023-05-15T16:54:02.695Z,1.92
2023-05-15T16:56:30.529Z,2.22
2023-05-15T16:58:59.128Z,2.08
2023-05-15T17:01:29.349Z,2.33
2023-05-15T17:03:56.764Z,1.60
2023-05-15T17:06:24.035Z,2.47
2023-05-15T17:08:51.303Z,2.10
2023-05-15T17:11:18.639Z,2.40
2023-05-15T17:13:46.118Z,1.98
2023-05-15T17:16:13.435Z,1.90
2023-05-15T17:18:43.042Z,1.83
2023-05-15T17:21:10.953Z,1.80
2023-05-15T17:23:38.097Z,1.90
2023-05-15T17:26:05.345Z,2.08
2023-05-15T17:28:32.642Z,2.03
2023-05-15T17:31:00.404Z,1.83
2023-05-15T17:33:27.812Z,2.30
2023-05-15T17:35:56.006Z,1.80
2023-05-15T17:38:23.365Z,2.00
2023-05-15T17:43:55.439Z,2.28
2023-05-15T17:46:23.003Z,2.10
2023-05-15T17:48:50.496Z,2.10
2023-05-15T17:51:17.911Z,2.13
2023-05-15T17:53:45.262Z,2.38
2023-05-15T17:56:12.681Z,2.42
2023-05-15T17:58:40.272Z,2.33
2023-05-15T18:01:07.497Z,2.50
2023-05-15T18:03:34.904Z,2.95
2023-05-15T18:06:04.089Z,2.53
2023-05-15T18:08:31.286Z,2.45
2023-05-15T18:11:04.183Z,3.20
2023-05-15T18:13:38.599Z,2.47
2023-05-15T18:16:06.718Z,3.63
2023-05-15T18:18:34.789Z,2.60
2023-05-15T18:21:02.390Z,3.13
2023-05-15T18:23:29.570Z,2.90
2023-05-15T18:25:56.823Z,2.40
2023-05-15T18:28:24.083Z,2.60
2023-05-15T18:30:51.295Z,2.85
2023-05-15T18:33:18.547Z,2.75
2023-05-15T18:35:45.902Z,2.50
2023-05-15T18:38:14.322Z,2.58
2023-05-15T18:40:41.848Z,2.55
2023-05-15T18:43:09.302Z,2.60
2023-05-15T18:45:36.571Z,2.88
2023-05-15T18:48:04.139Z,3.00
2023-05-15T18:50:31.545Z,2.72
2023-05-15T18:52:59.082Z,2.50
2023-05-15T18:55:27.561Z,2.42
2023-05-15T18:57:54.903Z,2.80
2023-05-15T19:00:33.934Z,2.40
2023-05-15T19:03:05.757Z,3.42
2023-05-15T19:05:34.322Z,2.55
2023-05-15T19:08:01.879Z,3.10
2023-05-15T19:10:29.484Z,2.70
2023-05-15T19:12:57.885Z,2.63
2023-05-15T19:15:25.742Z,2.60
2023-05-15T19:17:53.242Z,2.97
2023-05-15T19:20:20.976Z,2.75
2023-05-15T19:22:48.127Z,2.80
2023-05-15T19:25:15.651Z,3.25
2023-05-15T19:27:42.977Z,2.78
2023-05-15T19:30:11.145Z,3.33
2023-05-15T19:32:38.748Z,3.25
2023-05-15T19:35:06.363Z,3.50
2023-05-15T19:37:33.592Z,3.42
2023-05-15T19:40:00.904Z,3.03
2023-05-15T19:42:28.129Z,3.20
2023-05-15T19:44:55.453Z,3.70
2023-05-15T19:47:22.854Z,3.45
2023-05-15T19:49:50.215Z,3.63
2023-05-15T19:52:19.414Z,3.78
2023-05-15T19:54:46.777Z,3.10
2023-05-15T19:57:15.329Z,3.60
2023-05-15T19:59:42.503Z,4.45
2023-05-15T20:02:11.162Z,4.10
2023-05-15T20:04:38.426Z,3.47
2023-05-15T20:07:05.660Z,2.95
2023-05-15T20:09:33.212Z,3.40
2023-05-15T20:12:01.069Z,3.97
2023-05-15T20:14:28.320Z,3.70
2023-05-15T20:16:55.460Z,3.63
2023-05-15T20:19:24.730Z,3.50
2023-05-15T20:21:53.325Z,3.20
2023-05-15T20:24:25.568Z,3.72
2023-05-15T20:26:53.065Z,3.80
2023-05-15T20:29:20.316Z,4.18
2023-05-15T20:31:47.603Z,3.72
2023-05-15T20:34:14.966Z,3.78
2023-05-15T20:36:42.512Z,3.85
2023-05-15T20:39:10.618Z,3.35
2023-05-15T20:41:37.850Z,3.40
2023-05-15T20:44:05.155Z,3.50
2023-05-15T20:46:33.152Z,3.28
2023-05-15T20:49:00.556Z,3.53
2023-05-15T20:51:27.739Z,3.70
2023-05-15T20:53:54.981Z,3.42
2023-05-15T20:56:22.215Z,3.80
2023-05-15T20:58:49.405Z,3.85
2023-05-15T21:01:16.603Z,3.55
2023-05-15T21:03:44.355Z,3.60
2023-05-15T21:06:11.586Z,4.28
2023-05-15T21:08:38.872Z,3.75
2023-05-15T21:11:06.066Z,3.80
2023-05-15T21:13:33.274Z,3.28
2023-05-15T21:16:00.550Z,3.42
2023-05-15T21:18:27.788Z,3.60
2023-05-15T21:20:55.013Z,4.00
2023-05-15T21:23:22.341Z,3.80
2023-05-15T21:25:49.530Z,3.90
2023-05-15T21:28:16.846Z,3.53
2023-05-15T21:30:44.355Z,3.72
2023-05-15T21:33:11.761Z,4.43
2023-05-15T21:35:39.782Z,4.65
2023-05-15T21:38:07.074Z,4.43
2023-05-15T21:40:34.572Z,4.22
2023-05-15T21:43:01.843Z,4.35
2023-05-15T21:45:29.949Z,4.07
2023-05-15T21:47:57.337Z,4.65
2023-05-15T21:50:26.614Z,3.88
2023-05-15T21:52:54.010Z,4.05
2023-05-15T21:55:21.246Z,3.95
2023-05-15T21:57:48.434Z,4.20
2023-05-15T22:00:16.306Z,4.50
2023-05-15T22:03:08.474Z,4.88
2023-05-15T22:05:36.010Z,4.38
2023-05-15T22:08:28.456Z,4.03
2023-05-15T22:10:55.756Z,4.40
2023-05-15T22:13:23.658Z,4.90
2023-05-15T22:23:13.618Z,5.50
2023-05-15T22:25:44.180Z,5.57
2023-05-15T22:28:11.533Z,4.60
2023-05-15T22:30:38.704Z,5.25
2023-05-15T22:33:06.033Z,4.70
2023-05-15T22:35:33.243Z,5.30
2023-05-15T22:38:00.490Z,5.55
2023-05-15T22:40:28.056Z,4.72
2023-05-15T22:42:55.441Z,5.05
2023-05-15T22:45:22.617Z,5.22
2023-05-15T22:47:49.840Z,4.82
2023-05-15T22:50:18.424Z,4.68
2023-05-15T22:52:45.842Z,5.10
2023-05-15T22:55:13.136Z,4.90
2023-05-15T22:57:40.471Z,5.25
2023-05-15T23:00:08.117Z,4.80
2023-05-15T23:02:37.425Z,4.47
2023-05-15T23:05:05.049Z,5.45
2023-05-15T23:07:32.340Z,5.03
2023-05-15T23:09:59.577Z,5.93
2023-05-15T23:12:26.849Z,5.88
2023-05-15T23:14:54.094Z,5.57
2023-05-15T23:17:21.384Z,6.35
2023-05-15T23:19:48.756Z,5.57
2023-05-15T23:22:16.032Z,5.70
2023-05-15T23:24:43.197Z,6.15
2023-05-15T23:27:10.411Z,6.63
2023-05-15T23:29:37.633Z,6.30
2023-05-15T23:32:05.384Z,5.78
2023-05-15T23:34:32.500Z,6.45
2023-05-15T23:36:59.865Z,6.25
2023-05-15T23:39:27.170Z,6.80
2023-05-15T23:41:54.515Z,6.95
2023-05-15T23:44:21.761Z,7.20
2023-05-15T23:46:49.172Z,7.38
2023-05-15T23:49:16.537Z,6.45
2023-05-15T23:51:44.144Z,7.68
2023-05-15T23:54:11.703Z,6.45
2023-05-15T23:56:46.537Z,6.68
2023-05-15T23:59:13.906Z,6.85
